createdAt,value
2018-12-29T00:00:56.704Z,45.07
2018-12-29T00:06:00.134Z,46.87
2018-12-29T00:11:03.570Z,48.70
2018-12-29T00:16:06.997Z,45.87
2018-12-29T00:21:10.450Z,47.47
2018-12-29T00:26:13.867Z,47.10
2018-12-29T00:31:17.320Z,52.33
2018-12-29T00:36:21.623Z,50.47
2018-12-29T00:41:25.161Z,48.53
2018-12-29T00:46:28.637Z,50.37
2018-12-29T00:51:32.080Z,50.27
2018-12-29T00:56:35.507Z,46.37
2018-12-29T01:01:39.006Z,46.03
2018-12-29T01:06:42.432Z,45.57
2018-12-29T01:11:46.174Z,52.07
2018-12-29T01:16:49.597Z,48.20
2018-12-29T01:21:53.018Z,48.73
2018-12-29T01:26:56.513Z,47.00
2018-12-29T01:31:59.933Z,47.23
2018-12-29T01:37:03.375Z,47.00
2018-12-29T01:42:06.800Z,46.40
2018-12-29T01:47:13.154Z,46.07
2018-12-29T01:52:16.595Z,48.57
2018-12-29T01:57:20.035Z,48.53
2018-12-29T02:02:23.503Z,47.67
2018-12-29T02:07:26.941Z,48.00
2018-12-29T02:12:30.443Z,45.43
2018-12-29T02:17:33.976Z,45.60
2018-12-29T02:22:37.394Z,47.67
2018-12-29T02:27:40.823Z,48.10
2018-12-29T02:32:44.257Z,44.57
2018-12-29T02:37:47.686Z,50.67
2018-12-29T02:42:51.131Z,48.77
2018-12-29T02:47:54.551Z,52.23
2018-12-29T02:52:58.184Z,48.83
2018-12-29T02:58:01.615Z,45.53
2018-12-29T03:03:05.060Z,45.50
2018-12-29T03:08:08.507Z,50.43
2018-12-29T03:13:11.953Z,47.43
2018-12-29T03:18:15.405Z,51.37
2018-12-29T03:23:18.836Z,50.93
2018-12-29T03:28:22.316Z,48.50
2018-12-29T03:33:25.749Z,46.53
2018-12-29T03:38:29.177Z,44.73
2018-12-29T03:43:32.603Z,48.37
2018-12-29T03:48:36.040Z,49.50
2018-12-29T03:53:39.478Z,51.20
2018-12-29T03:58:42.913Z,48.93
2018-12-29T04:03:46.358Z,56.07
2018-12-29T04:09:28.034Z,52.47
2018-12-29T04:14:31.475Z,56.73
2018-12-29T04:19:34.911Z,53.93
2018-12-29T04:24:38.383Z,53.50
2018-12-29T04:29:41.813Z,50.40
2018-12-29T04:34:45.242Z,51.33
2018-12-29T04:39:48.684Z,53.93
2018-12-29T04:44:52.269Z,51.53
2018-12-29T04:49:55.782Z,51.07
2018-12-29T04:54:59.333Z,51.70
2018-12-29T05:00:03.218Z,49.60
2018-12-29T05:05:06.787Z,52.47
2018-12-29T05:10:10.206Z,50.17
2018-12-29T05:15:13.636Z,56.43
2018-12-29T05:20:17.062Z,53.40
2018-12-29T05:25:20.528Z,53.50
2018-12-29T05:30:23.959Z,49.47
2018-12-29T05:35:27.407Z,49.70
2018-12-29T05:40:30.838Z,52.80
2018-12-29T05:45:34.264Z,49.60
2018-12-29T05:50:37.743Z,51.63
2018-12-29T05:55:41.151Z,45.67
2018-12-29T06:00:44.688Z,45.23
2018-12-29T06:05:48.153Z,53.00
2018-12-29T06:10:51.599Z,47.00
2018-12-29T06:15:55.016Z,49.93
2018-12-29T06:20:58.514Z,47.80
2018-12-29T06:26:01.961Z,51.00
2018-12-29T06:31:05.424Z,44.97
2018-12-29T06:36:08.844Z,45.00
2018-12-29T06:41:12.287Z,44.23
2018-12-29T06:46:15.715Z,42.27
2018-12-29T06:51:19.145Z,41.43
2018-12-29T06:56:22.571Z,46.27
2018-12-29T07:01:26.016Z,42.93
2018-12-29T07:06:29.442Z,40.80
2018-12-29T07:11:32.886Z,46.17
2018-12-29T07:16:42.208Z,43.03
2018-12-29T07:21:41.482Z,45.37
2018-12-29T07:26:44.901Z,47.93
2018-12-29T07:31:48.364Z,43.33
2018-12-29T07:36:51.835Z,44.70
2018-12-29T07:41:55.273Z,49.57
2018-12-29T07:46:58.723Z,53.40
2018-12-29T07:52:02.130Z,46.90
2018-12-29T07:57:05.595Z,51.67
2018-12-29T08:02:09.032Z,53.30
2018-12-29T08:07:12.481Z,53.67
2018-12-29T08:12:15.923Z,52.27
2018-12-29T08:17:19.343Z,62.90
2018-12-29T08:22:24.104Z,54.57
2018-12-29T08:27:27.724Z,49.80
2018-12-29T08:32:31.160Z,51.47
2018-12-29T08:37:34.605Z,53.63
2018-12-29T08:42:38.033Z,56.20
2018-12-29T08:47:41.511Z,54.30
2018-12-29T08:52:44.936Z,55.03
2018-12-29T08:57:48.384Z,55.13
2018-12-29T09:02:51.807Z,53.63
2018-12-29T09:07:55.263Z,51.90
2018-12-29T09:12:58.707Z,55.17
2018-12-29T09:18:02.152Z,55.33
2018-12-29T09:23:05.681Z,55.80
2018-12-29T09:28:09.117Z,51.57
2018-12-29T09:33:12.603Z,51.83
2018-12-29T09:38:16.001Z,56.07
2018-12-29T09:43:19.417Z,52.97
2018-12-29T09:48:22.864Z,53.10
2018-12-29T09:53:26.294Z,53.00
2018-12-29T09:58:29.736Z,57.23
2018-12-29T10:03:33.158Z,56.20
2018-12-29T10:08:36.594Z,61.83
2018-12-29T10:13:40.026Z,63.00
2018-12-29T10:18:43.455Z,65.53
2018-12-29T10:23:46.913Z,60.53
2018-12-29T10:28:50.345Z,61.93
2018-12-29T10:33:55.295Z,60.87
2018-12-29T10:38:58.881Z,60.83
2018-12-29T10:44:02.308Z,58.90
2018-12-29T10:49:05.740Z,58.53
2018-12-29T10:54:09.179Z,54.30
2018-12-29T10:59:12.599Z,55.53
2018-12-29T11:04:16.196Z,50.17
2018-12-29T11:09:19.598Z,50.67
2018-12-29T11:14:23.037Z,49.37
2018-12-29T11:19:26.470Z,52.33
2018-12-29T11:24:29.903Z,48.90
2018-12-29T11:29:33.336Z,50.23
2018-12-29T11:34:36.768Z,50.53
2018-12-29T11:39:40.191Z,49.27
2018-12-29T11:44:43.642Z,47.73
2018-12-29T11:49:47.082Z,52.37
2018-12-29T11:54:50.517Z,47.50
2018-12-29T11:59:53.933Z,50.07
2018-12-29T12:04:57.360Z,47.23
2018-12-29T12:10:00.799Z,49.90
2018-12-29T12:15:05.458Z,54.50
2018-12-29T12:20:08.876Z,51.60
2018-12-29T12:25:13.778Z,51.63
2018-12-29T12:30:17.656Z,54.63
2018-12-29T12:35:21.729Z,47.23
2018-12-29T12:40:25.160Z,43.47
2018-12-29T12:45:28.821Z,43.40
2018-12-29T12:50:32.219Z,43.17
2018-12-29T12:55:35.663Z,41.83
2018-12-29T13:00:39.377Z,36.83
2018-12-29T13:05:43.097Z,42.00
2018-12-29T13:10:46.542Z,39.57
2018-12-29T13:15:49.955Z,35.93
2018-12-29T13:20:53.402Z,34.83
2018-12-29T13:25:56.854Z,35.53
2018-12-29T13:31:00.289Z,33.90
2018-12-29T13:36:04.604Z,33.10
2018-12-29T13:41:08.048Z,33.50
2018-12-29T13:46:11.483Z,32.50
2018-12-29T13:51:14.923Z,34.10
2018-12-29T13:56:18.338Z,32.00
2018-12-29T14:01:21.785Z,31.97
2018-12-29T14:06:25.213Z,35.53
2018-12-29T14:11:29.047Z,31.27
2018-12-29T14:16:32.501Z,29.63
2018-12-29T14:21:35.953Z,30.90
2018-12-29T14:26:39.414Z,30.00
2018-12-29T14:31:42.941Z,31.07
2018-12-29T14:36:46.443Z,28.77
2018-12-29T14:41:50.598Z,29.47
2018-12-29T14:46:54.102Z,27.47
2018-12-29T14:51:57.541Z,27.67
2018-12-29T14:57:01.015Z,28.73
2018-12-29T15:02:04.447Z,26.53
2018-12-29T15:07:07.877Z,28.83
2018-12-29T15:12:11.313Z,29.57
2018-12-29T15:17:14.795Z,28.40
2018-12-29T15:22:18.285Z,29.17
2018-12-29T15:27:22.194Z,24.23
2018-12-29T15:32:25.638Z,30.73
2018-12-29T15:37:29.160Z,28.13
2018-12-29T15:42:32.600Z,27.93
2018-12-29T15:47:36.034Z,26.60
2018-12-29T15:52:39.506Z,27.83
2018-12-29T15:57:42.931Z,23.43
2018-12-29T16:02:46.449Z,24.20
2018-12-29T16:07:49.893Z,26.20
2018-12-29T16:12:53.329Z,25.50
2018-12-29T16:17:57.323Z,19.50
2018-12-29T16:23:00.801Z,22.27
2018-12-29T16:28:04.218Z,23.77
2018-12-29T16:33:07.937Z,23.13
2018-12-29T16:38:11.382Z,22.80
2018-12-29T16:43:14.811Z,22.23
2018-12-29T16:48:18.247Z,21.43
2018-12-29T16:53:28.898Z,22.90
2018-12-29T16:58:26.842Z,21.23
2018-12-29T17:03:30.545Z,21.90
2018-12-29T17:08:33.992Z,24.50
2018-12-29T17:13:37.449Z,26.63
2018-12-29T17:18:40.876Z,24.87
2018-12-29T17:23:44.544Z,25.73
2018-12-29T17:28:48.002Z,25.33
2018-12-29T17:33:51.689Z,26.63
2018-12-29T17:38:55.180Z,26.37
2018-12-29T17:43:58.896Z,28.90
2018-12-29T17:49:02.664Z,27.53
2018-12-29T17:54:06.136Z,27.30
2018-12-29T17:59:09.762Z,27.97
2018-12-29T18:04:13.179Z,28.53
2018-12-29T18:09:16.606Z,27.97
2018-12-29T18:14:20.043Z,30.27
2018-12-29T18:19:30.341Z,31.37
2018-12-29T18:24:28.638Z,32.70
2018-12-29T18:29:32.071Z,35.73
2018-12-29T18:34:35.516Z,33.87
2018-12-29T18:39:38.950Z,39.67
2018-12-29T18:44:42.368Z,32.57
2018-12-29T18:49:45.825Z,38.60
2018-12-29T18:54:49.278Z,37.70
2018-12-29T18:59:52.698Z,42.00
2018-12-29T19:04:56.986Z,41.97
2018-12-29T19:10:01.247Z,37.17
2018-12-29T19:15:06.092Z,39.97
2018-12-29T19:20:09.995Z,42.60
2018-12-29T19:25:13.434Z,42.97
2018-12-29T19:30:16.914Z,41.30
2018-12-29T19:35:20.744Z,39.07
2018-12-29T19:40:24.180Z,40.37
2018-12-29T19:45:28.081Z,39.83
2018-12-29T19:50:31.802Z,36.33
2018-12-29T19:55:35.230Z,35.30
2018-12-29T20:00:38.678Z,36.93
2018-12-29T20:05:42.595Z,33.50
2018-12-29T20:10:46.032Z,31.13
2018-12-29T20:15:49.450Z,28.63
2018-12-29T20:20:52.907Z,24.83
2018-12-29T20:25:56.388Z,20.90
2018-12-29T20:30:59.830Z,13.63
2018-12-29T20:36:03.638Z,4.43
2018-12-29T20:41:07.179Z,2.53
2018-12-29T20:46:10.913Z,2.40
2018-12-29T20:51:14.341Z,1.93
2018-12-29T20:56:17.795Z,3.90
2018-12-29T21:01:21.229Z,3.00
2018-12-29T21:06:24.693Z,2.67
2018-12-29T21:11:28.134Z,2.93
2018-12-29T21:16:31.664Z,2.67
2018-12-29T21:21:35.104Z,2.40
2018-12-29T21:26:38.582Z,2.27
2018-12-29T21:31:42.053Z,4.50
2018-12-29T21:36:45.638Z,3.80
2018-12-29T21:41:49.425Z,3.13
2018-12-29T21:46:52.939Z,2.67
2018-12-29T21:51:56.404Z,5.63
2018-12-29T21:56:59.836Z,4.57
2018-12-29T22:02:03.268Z,3.67
2018-12-29T22:07:06.742Z,3.47
2018-12-29T22:12:10.570Z,5.60
2018-12-29T22:17:16.340Z,3.57
2018-12-29T22:22:19.747Z,4.67
2018-12-29T22:27:23.259Z,4.60
2018-12-29T22:32:26.809Z,2.83
2018-12-29T22:37:30.716Z,4.50
2018-12-29T22:42:34.279Z,3.70
2018-12-29T22:47:37.899Z,4.77
2018-12-29T22:52:41.480Z,5.33
2018-12-29T22:57:44.879Z,5.00
2018-12-29T23:02:48.461Z,4.57
2018-12-29T23:07:52.113Z,4.07
2018-12-29T23:12:55.585Z,3.87
2018-12-29T23:17:59.016Z,4.97
2018-12-29T23:23:06.614Z,2.90
2018-12-29T23:28:10.153Z,3.77
2018-12-29T23:33:13.593Z,4.27
2018-12-29T23:38:17.055Z,4.90
2018-12-29T23:43:20.495Z,3.97
2018-12-29T23:48:24.117Z,2.70
2018-12-29T23:53:27.717Z,4.23
2018-12-29T23:58:31.737Z,5.97
